EFW21AB LGTS-EGKK
Flight info
| Callsign | EFW21AB |
|---|---|
| Flight time | N/A |
| Altitude | 34000 |
| Route | FSK4B FSK UN128 RUGAS DCT RAXAD DCT GINAM DCT SOSEK DCT NEVAK DCT RISTU DCT TADAM DCT BABIT DCT OLATI DCT ARSIN DCT BUDEX/N0450F360 DCT OKG DCT VELIS DCT SWALM DCT TORNU DCT BATAK DCT GALSO Q63 ARREK Y4 TEBRA TEBRA2G |
| Aircraft | A320/M-SDE3FGIJ1KRWXY/S |
Departure
| Time | N/A |
|---|---|
| Airport | Thessaloniki Macedonia International Airport (LGTS) |
Arrival
| Time | 2026-05-06 19:04 |
|---|---|
| Airport | London Gatwick Airport (EGKK) |
| Time | Latitude | Longitude | Altitude | Speed | Heading |
|---|---|---|---|---|---|
| 2026-05-06 18:24 | 51.62443 | 4.28109 | 35931 ft | 436 kts | 278° |
| 2026-05-06 18:24 | 51.62935 | 4.23296 | 35925 ft | 436 kts | 278° |
| 2026-05-06 18:25 | 51.63915 | 4.13666 | 35927 ft | 436 kts | 278° |
| 2026-05-06 18:25 | 51.64892 | 4.04041 | 35929 ft | 435 kts | 278° |
| 2026-05-06 18:26 | 51.65852 | 3.94419 | 35933 ft | 436 kts | 278° |
| 2026-05-06 18:26 | 51.66805 | 3.84775 | 35938 ft | 436 kts | 278° |
| 2026-05-06 18:27 | 51.67752 | 3.75213 | 35943 ft | 435 kts | 278° |
| 2026-05-06 18:27 | 51.68697 | 3.65535 | 35947 ft | 434 kts | 278° |
| 2026-05-06 18:28 | 51.69618 | 3.55991 | 35949 ft | 434 kts | 278° |
| 2026-05-06 18:28 | 51.70538 | 3.46382 | 35947 ft | 434 kts | 278° |
| 2026-05-06 18:29 | 51.71446 | 3.36779 | 35942 ft | 434 kts | 278° |
| 2026-05-06 18:29 | 51.72352 | 3.27167 | 35961 ft | 432 kts | 277° |
| 2026-05-06 18:30 | 51.73094 | 3.17578 | 35964 ft | 430 kts | 270° |
| 2026-05-06 18:30 | 51.72494 | 3.07992 | 35871 ft | 429 kts | 262° |
| 2026-05-06 18:31 | 51.72080 | 3.03231 | 35573 ft | 431 kts | 262° |
| 2026-05-06 18:31 | 51.71659 | 2.98409 | 34749 ft | 436 kts | 262° |
| 2026-05-06 18:31 | 51.71236 | 2.93555 | 34004 ft | 438 kts | 262° |
| 2026-05-06 18:31 | 51.70815 | 2.88671 | 33072 ft | 441 kts | 262° |
| 2026-05-06 18:32 | 51.70388 | 2.83782 | 32251 ft | 440 kts | 262° |
| 2026-05-06 18:32 | 51.69958 | 2.78894 | 31517 ft | 439 kts | 262° |
| 2026-05-06 18:32 | 51.69506 | 2.74062 | 30951 ft | 434 kts | 260° |
| 2026-05-06 18:32 | 51.68980 | 2.69297 | 30398 ft | 430 kts | 259° |
| 2026-05-06 18:33 | 51.68413 | 2.64660 | 29832 ft | 426 kts | 258° |
| 2026-05-06 18:33 | 51.67836 | 2.60018 | 29243 ft | 420 kts | 258° |
| 2026-05-06 18:33 | 51.67279 | 2.55427 | 28702 ft | 415 kts | 258° |
| 2026-05-06 18:33 | 51.66746 | 2.50890 | 28165 ft | 410 kts | 259° |
| 2026-05-06 18:34 | 51.66233 | 2.46406 | 27627 ft | 405 kts | 259° |
| 2026-05-06 18:34 | 51.65734 | 2.41972 | 27101 ft | 401 kts | 259° |
| 2026-05-06 18:34 | 51.65240 | 2.37571 | 26579 ft | 397 kts | 260° |
| 2026-05-06 18:34 | 51.64751 | 2.33220 | 26067 ft | 393 kts | 259° |
| 2026-05-06 18:35 | 51.64259 | 2.28902 | 25570 ft | 391 kts | 259° |
| 2026-05-06 18:35 | 51.63768 | 2.24616 | 25071 ft | 389 kts | 259° |
| 2026-05-06 18:35 | 51.63275 | 2.20345 | 24592 ft | 387 kts | 259° |
| 2026-05-06 18:35 | 51.62781 | 2.16109 | 24119 ft | 385 kts | 259° |
| 2026-05-06 18:36 | 51.62286 | 2.11890 | 23660 ft | 383 kts | 259° |
| 2026-05-06 18:36 | 51.61792 | 2.07681 | 23165 ft | 381 kts | 259° |
| 2026-05-06 18:36 | 51.61300 | 2.03514 | 22718 ft | 378 kts | 259° |
| 2026-05-06 18:36 | 51.60815 | 1.99376 | 22272 ft | 375 kts | 259° |
| 2026-05-06 18:37 | 51.60331 | 1.95278 | 21829 ft | 372 kts | 259° |
| 2026-05-06 18:37 | 51.60009 | 1.92576 | 21532 ft | 370 kts | 259° |
| 2026-05-06 18:37 | 51.59368 | 1.87161 | 20932 ft | 366 kts | 259° |
| 2026-05-06 18:37 | 51.58879 | 1.83159 | 20432 ft | 365 kts | 256° |
| 2026-05-06 18:38 | 51.58074 | 1.79344 | 19924 ft | 365 kts | 247° |
| 2026-05-06 18:38 | 51.56945 | 1.75706 | 19429 ft | 363 kts | 242° |
| 2026-05-06 18:38 | 51.55655 | 1.72237 | 18963 ft | 361 kts | 239° |
| 2026-05-06 18:38 | 51.54321 | 1.68829 | 18473 ft | 359 kts | 239° |
| 2026-05-06 18:39 | 51.53013 | 1.65418 | 17950 ft | 357 kts | 240° |
| 2026-05-06 18:39 | 51.51757 | 1.61993 | 17455 ft | 354 kts | 241° |
| 2026-05-06 18:39 | 51.50559 | 1.58572 | 16969 ft | 351 kts | 242° |
| 2026-05-06 18:40 | 51.48254 | 1.51748 | 16013 ft | 345 kts | 243° |
| 2026-05-06 18:40 | 51.47121 | 1.48367 | 15533 ft | 343 kts | 243° |
| 2026-05-06 18:40 | 51.45994 | 1.45019 | 15058 ft | 341 kts | 243° |
| 2026-05-06 18:40 | 51.44865 | 1.41685 | 14583 ft | 339 kts | 243° |
| 2026-05-06 18:41 | 51.43614 | 1.38495 | 14107 ft | 339 kts | 233° |
| 2026-05-06 18:41 | 51.41977 | 1.35786 | 13772 ft | 337 kts | 221° |
| 2026-05-06 18:41 | 51.40094 | 1.33545 | 13849 ft | 340 kts | 218° |
| 2026-05-06 18:41 | 51.38167 | 1.31279 | 13986 ft | 344 kts | 218° |
| 2026-05-06 18:42 | 51.36253 | 1.29011 | 13991 ft | 343 kts | 218° |
| 2026-05-06 18:42 | 51.34339 | 1.26735 | 13986 ft | 343 kts | 218° |
| 2026-05-06 18:42 | 51.32451 | 1.24491 | 13977 ft | 343 kts | 218° |
| 2026-05-06 18:42 | 51.30537 | 1.22224 | 13982 ft | 343 kts | 218° |
| 2026-05-06 18:43 | 51.28622 | 1.19963 | 13990 ft | 343 kts | 218° |
| 2026-05-06 18:43 | 51.26702 | 1.17701 | 13991 ft | 343 kts | 218° |
| 2026-05-06 18:43 | 51.24844 | 1.15339 | 13987 ft | 341 kts | 227° |
| 2026-05-06 18:43 | 51.23471 | 1.12289 | 13997 ft | 339 kts | 243° |
| 2026-05-06 18:44 | 51.22366 | 1.08969 | 13995 ft | 339 kts | 243° |
| 2026-05-06 18:44 | 51.21265 | 1.05652 | 13992 ft | 339 kts | 243° |
| 2026-05-06 18:44 | 51.20164 | 1.02324 | 13992 ft | 339 kts | 244° |
| 2026-05-06 18:44 | 51.19067 | 0.99007 | 13996 ft | 339 kts | 243° |
| 2026-05-06 18:45 | 51.17965 | 0.95685 | 13994 ft | 339 kts | 243° |
| 2026-05-06 18:45 | 51.16863 | 0.92371 | 13985 ft | 338 kts | 243° |
| 2026-05-06 18:45 | 51.15762 | 0.89064 | 13989 ft | 338 kts | 243° |
| 2026-05-06 18:45 | 51.15033 | 0.86875 | 13986 ft | 338 kts | 243° |
| 2026-05-06 18:46 | 51.13559 | 0.82455 | 13947 ft | 336 kts | 243° |
| 2026-05-06 18:46 | 51.12465 | 0.79183 | 13478 ft | 334 kts | 243° |
| 2026-05-06 18:46 | 51.11378 | 0.75938 | 12966 ft | 332 kts | 243° |
| 2026-05-06 18:46 | 51.10295 | 0.72709 | 12479 ft | 330 kts | 243° |
| 2026-05-06 18:47 | 51.09217 | 0.69498 | 11992 ft | 328 kts | 244° |
| 2026-05-06 18:47 | 51.08145 | 0.66303 | 11541 ft | 326 kts | 244° |
| 2026-05-06 18:47 | 51.07146 | 0.63078 | 11083 ft | 323 kts | 253° |
| 2026-05-06 18:47 | 51.06741 | 0.59603 | 10638 ft | 319 kts | 265° |
| 2026-05-06 18:48 | 51.06539 | 0.56108 | 10310 ft | 314 kts | 266° |
| 2026-05-06 18:48 | 51.06356 | 0.52717 | 10163 ft | 303 kts | 266° |
| 2026-05-06 18:48 | 51.06173 | 0.49422 | 9958 ft | 296 kts | 266° |
| 2026-05-06 18:48 | 51.05995 | 0.46199 | 9701 ft | 290 kts | 266° |
| 2026-05-06 18:49 | 51.05815 | 0.43031 | 9434 ft | 285 kts | 266° |
| 2026-05-06 18:49 | 51.05639 | 0.39914 | 9164 ft | 281 kts | 266° |
| 2026-05-06 18:49 | 51.05469 | 0.36847 | 8899 ft | 277 kts | 266° |
| 2026-05-06 18:49 | 51.05302 | 0.33803 | 8642 ft | 276 kts | 266° |
| 2026-05-06 18:50 | 51.05142 | 0.30765 | 8386 ft | 276 kts | 266° |
| 2026-05-06 18:50 | 51.04979 | 0.27743 | 8133 ft | 273 kts | 266° |
| 2026-05-06 18:50 | 51.04816 | 0.24737 | 7974 ft | 273 kts | 266° |
| 2026-05-06 18:50 | 51.04653 | 0.21732 | 7981 ft | 272 kts | 266° |
| 2026-05-06 18:51 | 51.04539 | 0.19752 | 7981 ft | 272 kts | 266° |
| 2026-05-06 18:51 | 51.04317 | 0.15776 | 7980 ft | 274 kts | 266° |
| 2026-05-06 18:51 | 51.04152 | 0.12755 | 7991 ft | 273 kts | 266° |
| 2026-05-06 18:51 | 51.03992 | 0.09744 | 7987 ft | 275 kts | 266° |
| 2026-05-06 18:52 | 51.03829 | 0.06736 | 7994 ft | 272 kts | 266° |
| 2026-05-06 18:52 | 51.03666 | 0.03731 | 7989 ft | 273 kts | 266° |
| 2026-05-06 18:52 | 51.03503 | 0.00725 | 7994 ft | 274 kts | 267° |
| 2026-05-06 18:52 | 51.03395 | -0.01256 | 7997 ft | 268 kts | 266° |
| 2026-05-06 18:53 | 51.03219 | -0.04124 | 8002 ft | 254 kts | 266° |
| 2026-05-06 18:53 | 51.03071 | -0.06849 | 7995 ft | 242 kts | 274° |
| 2026-05-06 18:53 | 51.03335 | -0.09470 | 8007 ft | 240 kts | 285° |
| 2026-05-06 18:53 | 51.03740 | -0.12039 | 8005 ft | 239 kts | 286° |
| 2026-05-06 18:54 | 51.03929 | -0.14661 | 7996 ft | 241 kts | 269° |
| 2026-05-06 18:54 | 51.03807 | -0.17322 | 7998 ft | 242 kts | 266° |
| 2026-05-06 18:54 | 51.03649 | -0.19990 | 8005 ft | 243 kts | 266° |
| 2026-05-06 18:54 | 51.03488 | -0.22660 | 8010 ft | 242 kts | 266° |
| 2026-05-06 18:55 | 51.03320 | -0.25304 | 7789 ft | 240 kts | 266° |
| 2026-05-06 18:55 | 51.03150 | -0.27933 | 7487 ft | 239 kts | 266° |
| 2026-05-06 18:55 | 51.02980 | -0.30561 | 7187 ft | 238 kts | 266° |
| 2026-05-06 18:55 | 51.02807 | -0.33162 | 6890 ft | 237 kts | 266° |
| 2026-05-06 18:56 | 51.02633 | -0.35754 | 6608 ft | 235 kts | 266° |
| 2026-05-06 18:56 | 51.02462 | -0.38337 | 6296 ft | 235 kts | 266° |
| 2026-05-06 18:56 | 51.02297 | -0.40876 | 5991 ft | 234 kts | 266° |
| 2026-05-06 18:56 | 51.02127 | -0.43475 | 5668 ft | 233 kts | 266° |
| 2026-05-06 18:57 | 51.01969 | -0.45996 | 5366 ft | 232 kts | 266° |
| 2026-05-06 18:57 | 51.01815 | -0.48584 | 5039 ft | 232 kts | 266° |
| 2026-05-06 18:57 | 51.01785 | -0.51079 | 4764 ft | 226 kts | 285° |
| 2026-05-06 18:57 | 51.02491 | -0.53168 | 4628 ft | 212 kts | 317° |
| 2026-05-06 18:58 | 51.03774 | -0.54190 | 4342 ft | 207 kts | 353° |
| 2026-05-06 18:58 | 51.05160 | -0.53798 | 4087 ft | 205 kts | 29° |
| 2026-05-06 18:58 | 51.06248 | -0.52354 | 3843 ft | 203 kts | 45° |
| 2026-05-06 18:58 | 51.07210 | -0.50716 | 3580 ft | 201 kts | 46° |
| 2026-05-06 18:59 | 51.08117 | -0.49115 | 3347 ft | 191 kts | 46° |
| 2026-05-06 18:59 | 51.08984 | -0.47577 | 3084 ft | 184 kts | 45° |
| 2026-05-06 18:59 | 51.09825 | -0.46070 | 3006 ft | 181 kts | 46° |
| 2026-05-06 18:59 | 51.10665 | -0.44571 | 3007 ft | 181 kts | 47° |
| 2026-05-06 19:00 | 51.11410 | -0.43022 | 2975 ft | 172 kts | 63° |
| 2026-05-06 19:00 | 51.11729 | -0.41220 | 2826 ft | 167 kts | 73° |
| 2026-05-06 19:00 | 51.11974 | -0.39446 | 2606 ft | 160 kts | 73° |
| 2026-05-06 19:00 | 51.12206 | -0.37776 | 2414 ft | 149 kts | 73° |
| 2026-05-06 19:01 | 51.12426 | -0.36200 | 2252 ft | 143 kts | 75° |
| 2026-05-06 19:01 | 51.12640 | -0.34666 | 2040 ft | 140 kts | 73° |
| 2026-05-06 19:01 | 51.12852 | -0.33156 | 1844 ft | 140 kts | 73° |
| 2026-05-06 19:01 | 51.13063 | -0.31643 | 1655 ft | 139 kts | 73° |
| 2026-05-06 19:02 | 51.13272 | -0.30143 | 1460 ft | 138 kts | 74° |
| 2026-05-06 19:02 | 51.13481 | -0.28647 | 1272 ft | 139 kts | 74° |
| 2026-05-06 19:02 | 51.13689 | -0.27151 | 1068 ft | 139 kts | 74° |
| 2026-05-06 19:02 | 51.13895 | -0.25666 | 863 ft | 136 kts | 74° |
| 2026-05-06 19:03 | 51.14098 | -0.24204 | 686 ft | 136 kts | 76° |
| 2026-05-06 19:03 | 51.14301 | -0.22744 | 513 ft | 134 kts | 77° |
| 2026-05-06 19:03 | 51.14501 | -0.21296 | 328 ft | 134 kts | 77° |
| 2026-05-06 19:03 | 51.14697 | -0.19863 | 211 ft | 124 kts | 76° |
| 2026-05-06 19:04 | 51.14852 | -0.18758 | 202 ft | 78 kts | 78° |
| 2026-05-06 19:04 | 51.14940 | -0.18118 | 204 ft | 38 kts | 77° |
| 2026-05-06 19:04 | 51.15041 | -0.17828 | 212 ft | 20 kts | 52° |
| 2026-05-06 19:04 | 51.15109 | -0.17755 | 205 ft | 11 kts | 357° |
| 2026-05-06 19:05 | 51.15179 | -0.17768 | 209 ft | 4 kts | 353° |
| 2026-05-06 19:05 | 51.15180 | -0.17768 | 209 ft | 0 kts | 353° |
| 2026-05-06 19:05 | 51.15197 | -0.17771 | 210 ft | 8 kts | 353° |
| 2026-05-06 19:06 | 51.15258 | -0.17736 | 209 ft | 12 kts | 61° |
| 2026-05-06 19:06 | 51.15281 | -0.17593 | 204 ft | 15 kts | 77° |
| 2026-05-06 19:06 | 51.15296 | -0.17471 | 204 ft | 9 kts | 81° |
| 2026-05-06 19:06 | 51.15315 | -0.17373 | 206 ft | 7 kts | 46° |
| 2026-05-06 19:07 | 51.15360 | -0.17319 | 209 ft | 10 kts | 67° |
| 2026-05-06 19:07 | 51.15385 | -0.17205 | 206 ft | 12 kts | 74° |
| 2026-05-06 19:07 | 51.15411 | -0.17091 | 206 ft | 10 kts | 77° |
| 2026-05-06 19:07 | 51.15429 | -0.16968 | 204 ft | 13 kts | 77° |
| 2026-05-06 19:08 | 51.15447 | -0.16840 | 213 ft | 8 kts | 77° |
| 2026-05-06 19:08 | 51.15450 | -0.16817 | 212 ft | 0 kts | 78° |
| 2026-05-06 19:08 | 51.15451 | -0.16807 | 211 ft | 4 kts | 79° |
| 2026-05-06 19:08 | 51.15449 | -0.16749 | 208 ft | 6 kts | 102° |
| 2026-05-06 19:09 | 51.15445 | -0.16704 | 210 ft | 2 kts | 90° |
| 2026-05-06 19:09 | 51.15446 | -0.16687 | 204 ft | 0 kts | 83° |
| 2026-05-06 19:09 | 51.15446 | -0.16685 | 204 ft | 1 kts | 82° |
| 2026-05-06 19:09 | 51.15448 | -0.16666 | 212 ft | 3 kts | 80° |
| 2026-05-06 19:10 | 51.15460 | -0.16639 | 206 ft | 3 kts | 22° |
| 2026-05-06 19:10 | 51.15481 | -0.16641 | 204 ft | 4 kts | 351° |
| 2026-05-06 19:10 | 51.15514 | -0.16653 | 209 ft | 2 kts | 348° |
| 2026-05-06 19:10 | 51.15524 | -0.16656 | 211 ft | 0 kts | 348° |